Time;durP1;ratioP1;P1;durP2;ratioP2;P2;SDS_P1;SDS_P2;PMS_P1;PMS_P2;Temp;Humidity;BMP_temperature;BMP_pressure;BME280_temperature;BME280_humidity;BME280_pressure;Samples;Min_cycle;Max_cycle;Signal;HPM_P1;HPM_P2
2023/01/02 00:00:12;;;;;;;26.02;14.48;;;;;;;;;;4948956;28;20572;-75
2023/01/02 00:02:58;;;;;;;23.48;13.75;;;;;;;;;;4955550;28;20053;-77
2023/01/02 00:05:24;;;;;;;28.10;14.57;;;;;;;;;;4951678;28;20043;-74
2023/01/02 00:07:50;;;;;;;28.15;14.80;;;;;;;;;;4950125;28;20417;-75
2023/01/02 00:10:16;;;;;;;25.63;13.80;;;;;;;;;;4948965;28;20061;-74
2023/01/02 00:12:42;;;;;;;25.25;13.68;;;;;;;;;;4950082;28;20047;-75
2023/01/02 00:15:08;;;;;;;24.95;13.43;;;;;;;;;;4951107;28;20049;-74
2023/01/02 00:17:34;;;;;;;25.02;13.80;;;;;;;;;;4947827;28;20531;-75
2023/01/02 00:20:00;;;;;;;23.25;13.77;;;;;;;;;;4950221;28;20082;-74
2023/01/02 00:22:26;;;;;;;25.33;13.93;;;;;;;;;;4951637;28;20046;-74
2023/01/02 00:24:52;;;;;;;25.83;13.20;;;;;;;;;;4950488;28;20050;-75
2023/01/02 00:27:18;;;;;;;25.50;13.50;;;;;;;;;;4947822;28;20074;-77
2023/01/02 00:29:44;;;;;;;23.38;12.98;;;;;;;;;;4948477;28;20113;-74
2023/01/02 00:32:10;;;;;;;25.65;13.32;;;;;;;;;;4953096;28;20457;-75
2023/01/02 00:34:36;;;;;;;24.70;12.38;;;;;;;;;;4954761;28;20058;-76
2023/01/02 00:37:02;;;;;;;24.52;12.73;;;;;;;;;;4957293;28;20045;-77
2023/01/02 00:39:28;;;;;;;23.33;12.82;;;;;;;;;;4949532;28;20047;-74
2023/01/02 00:41:54;;;;;;;23.83;12.95;;;;;;;;;;4950837;28;20051;-75
2023/01/02 00:44:20;;;;;;;20.40;11.45;;;;;;;;;;4951219;28;20050;-75
2023/01/02 00:46:46;;;;;;;25.35;11.85;;;;;;;;;;4947611;28;20054;-74
2023/01/02 00:49:11;;;;;;;22.48;11.60;;;;;;;;;;4951875;28;20464;-77
2023/01/02 00:51:37;;;;;;;22.42;11.57;;;;;;;;;;4948167;28;20054;-76
2023/01/02 00:54:03;;;;;;;24.08;11.45;;;;;;;;;;4943326;28;20047;-75
2023/01/02 00:56:29;;;;;;;18.95;11.88;;;;;;;;;;4945969;28;20050;-75
2023/01/02 00:58:55;;;;;;;22.35;11.35;;;;;;;;;;4945706;28;20058;-75
2023/01/02 01:01:21;;;;;;;23.50;11.38;;;;;;;;;;4942827;28;20505;-74
2023/01/02 01:03:47;;;;;;;18.75;11.40;;;;;;;;;;4949564;28;20062;-74
2023/01/02 01:06:13;;;;;;;21.67;11.00;;;;;;;;;;4949799;28;20129;-75
2023/01/02 01:08:39;;;;;;;28.45;11.55;;;;;;;;;;4953239;28;20043;-76
2023/01/02 01:11:11;;;;;;;21.92;11.77;;;;;;;;;;4952197;28;20051;-75
2023/01/02 01:13:38;;;;;;;23.30;11.18;;;;;;;;;;4940190;28;20054;-74
2023/01/02 01:16:10;;;;;;;23.52;10.90;;;;;;;;;;4954777;28;20046;-74
2023/01/02 01:18:36;;;;;;;29.13;11.07;;;;;;;;;;4950977;28;20572;-74
2023/01/02 01:21:07;;;;;;;19.83;11.40;;;;;;;;;;4948940;28;20062;-76
2023/01/02 01:23:33;;;;;;;20.23;11.05;;;;;;;;;;4949720;28;20764;-73
2023/01/02 01:26:04;;;;;;;23.90;12.50;;;;;;;;;;4950032;28;20521;-76
2023/01/02 01:28:29;;;;;;;24.52;10.82;;;;;;;;;;4951258;28;20043;-75
2023/01/02 01:31:01;;;;;;;25.92;11.07;;;;;;;;;;4950961;28;20058;-74
2023/01/02 01:33:28;;;;;;;20.25;11.23;;;;;;;;;;4950241;28;20059;-74
2023/01/02 01:35:54;;;;;;;23.30;11.65;;;;;;;;;;4951506;28;20059;-77
2023/01/02 01:38:20;;;;;;;24.20;11.63;;;;;;;;;;4950460;28;20078;-76
2023/01/02 01:40:46;;;;;;;21.58;11.85;;;;;;;;;;4952884;28;20092;-73
2023/01/02 01:43:13;;;;;;;22.38;11.48;;;;;;;;;;4949759;28;20051;-74
2023/01/02 01:45:43;;;;;;;25.17;11.38;;;;;;;;;;4951204;28;20066;-75
2023/01/02 01:48:16;;;;;;;24.65;11.95;;;;;;;;;;4948762;28;20050;-76
2023/01/02 01:50:42;;;;;;;22.05;12.40;;;;;;;;;;4949805;28;20055;-74
2023/01/02 01:53:14;;;;;;;22.70;11.18;;;;;;;;;;4950907;28;20043;-75
2023/01/02 01:55:45;;;;;;;21.27;10.73;;;;;;;;;;4950276;28;20166;-74
2023/01/02 01:58:15;;;;;;;18.15;10.63;;;;;;;;;;4952574;28;20046;-75
2023/01/02 02:00:42;;;;;;;21.38;11.05;;;;;;;;;;4953177;28;20194;-73
2023/01/02 02:03:13;;;;;;;22.13;11.43;;;;;;;;;;4950882;28;20070;-73
2023/01/02 02:05:41;;;;;;;18.45;10.52;;;;;;;;;;4955641;28;20450;-75
2023/01/02 02:08:34;;;;;;;24.33;10.73;;;;;;;;;;4956930;28;20074;-75
2023/01/02 02:11:01;;;;;;;22.75;10.57;;;;;;;;;;4956062;28;20047;-74
2023/01/02 02:13:30;;;;;;;22.27;10.45;;;;;;;;;;4953581;28;20389;-74
2023/01/02 02:16:05;;;;;;;21.90;10.85;;;;;;;;;;4957246;28;20775;-75
2023/01/02 02:18:39;;;;;;;25.00;11.50;;;;;;;;;;4954596;28;20554;-74
2023/01/02 02:21:26;;;;;;;22.35;10.20;;;;;;;;;;4954718;28;21095;-76
2023/01/02 02:24:15;;;;;;;19.70;9.75;;;;;;;;;;4956999;28;20411;-73
2023/01/02 02:27:19;;;;;;;18.70;9.25;;;;;;;;;;4954962;28;20139;-71
2023/01/02 02:30:20;;;;;;;19.90;8.65;;;;;;;;;;4950342;28;20043;-75
2023/01/02 02:33:05;;;;;;;23.60;9.57;;;;;;;;;;4952783;28;20881;-74
2023/01/02 02:35:42;;;;;;;14.40;8.05;;;;;;;;;;4953095;28;20051;-74
2023/01/02 02:38:44;;;;;;;17.15;8.77;;;;;;;;;;4953353;28;20058;-74
2023/01/02 02:41:21;;;;;;;17.60;8.77;;;;;;;;;;4950468;28;20055;-76
2023/01/02 02:44:03;;;;;;;16.90;8.73;;;;;;;;;;4949183;28;20070;-75
2023/01/02 02:46:52;;;;;;;17.48;8.75;;;;;;;;;;4953505;28;20051;-74
2023/01/02 02:49:37;;;;;;;17.23;8.70;;;;;;;;;;4952530;28;20497;-74
2023/01/02 02:52:33;;;;;;;15.07;8.60;;;;;;;;;;4955525;28;20051;-73
2023/01/02 02:55:24;;;;;;;14.48;7.93;;;;;;;;;;4952842;28;20039;-73
2023/01/02 02:57:52;;;;;;;17.08;8.52;;;;;;;;;;4956337;28;20219;-74
2023/01/02 03:00:21;;;;;;;11.35;7.45;;;;;;;;;;4957359;28;20046;-74
2023/01/02 03:02:47;;;;;;;13.65;8.15;;;;;;;;;;4952642;28;20090;-74
2023/01/02 03:05:20;;;;;;;17.75;8.43;;;;;;;;;;4951200;28;20055;-75
2023/01/02 03:07:58;;;;;;;12.40;7.32;;;;;;;;;;4957416;28;20054;-74
2023/01/02 03:10:45;;;;;;;13.45;6.97;;;;;;;;;;4950135;28;20134;-74
2023/01/02 03:13:20;;;;;;;14.57;7.30;;;;;;;;;;4948404;28;20473;-72
2023/01/02 03:16:12;;;;;;;14.30;6.78;;;;;;;;;;4952177;28;20520;-73
2023/01/02 03:18:50;;;;;;;15.43;6.93;;;;;;;;;;4937160;28;20043;-74
2023/01/02 03:21:25;;;;;;;15.90;7.63;;;;;;;;;;4954810;28;20051;-74
2023/01/02 03:23:53;;;;;;;14.00;7.93;;;;;;;;;;4957873;28;20509;-74
2023/01/02 03:26:24;;;;;;;16.25;8.00;;;;;;;;;;4952167;28;21140;-74
2023/01/02 03:28:55;;;;;;;14.88;7.00;;;;;;;;;;4947652;28;20046;-73
2023/01/02 03:31:24;;;;;;;13.45;6.75;;;;;;;;;;4955977;28;20095;-74
2023/01/02 03:34:02;;;;;;;13.90;6.65;;;;;;;;;;4954183;28;20480;-74
2023/01/02 03:36:32;;;;;;;14.60;7.35;;;;;;;;;;4953767;28;20134;-73
2023/01/02 03:39:11;;;;;;;18.40;7.03;;;;;;;;;;4958966;28;20110;-74
2023/01/02 03:41:42;;;;;;;14.85;7.32;;;;;;;;;;4953712;28;20065;-73
2023/01/02 03:44:11;;;;;;;12.32;6.80;;;;;;;;;;4958365;28;20046;-73
2023/01/02 03:46:46;;;;;;;15.52;6.72;;;;;;;;;;4952184;28;20125;-74
2023/01/02 03:49:12;;;;;;;11.82;6.32;;;;;;;;;;4956300;28;20110;-75
2023/01/02 03:51:38;;;;;;;12.13;6.60;;;;;;;;;;4958102;28;20047;-74
2023/01/02 03:54:04;;;;;;;11.10;5.97;;;;;;;;;;4949383;28;20051;-72
2023/01/02 03:56:46;;;;;;;9.38;5.78;;;;;;;;;;4954041;28;20047;-74
2023/01/02 03:59:22;;;;;;;12.18;5.90;;;;;;;;;;4951937;28;20133;-73
2023/01/02 04:01:52;;;;;;;10.93;6.25;;;;;;;;;;4948685;28;20161;-73
2023/01/02 04:04:21;;;;;;;13.60;6.10;;;;;;;;;;4955361;28;20059;-75
2023/01/02 04:06:54;;;;;;;12.02;6.53;;;;;;;;;;4948618;28;20054;-73
2023/01/02 04:09:24;;;;;;;11.68;5.65;;;;;;;;;;4956421;28;20094;-74
2023/01/02 04:11:55;;;;;;;11.02;5.80;;;;;;;;;;4955415;28;20059;-75
2023/01/02 04:14:41;;;;;;;17.67;6.18;;;;;;;;;;4953605;28;20523;-74
2023/01/02 04:17:09;;;;;;;9.48;5.53;;;;;;;;;;4954465;28;20742;-74
2023/01/02 04:19:48;;;;;;;7.90;5.03;;;;;;;;;;4952423;28;20070;-74
2023/01/02 04:22:27;;;;;;;9.63;5.35;;;;;;;;;;4955442;28;20070;-75
2023/01/02 04:25:02;;;;;;;9.35;5.35;;;;;;;;;;4957463;28;20302;-74
2023/01/02 04:27:34;;;;;;;14.35;5.13;;;;;;;;;;4949683;28;20130;-73
2023/01/02 04:30:00;;;;;;;9.43;4.85;;;;;;;;;;4955360;28;20082;-74
2023/01/02 04:32:37;;;;;;;6.97;4.53;;;;;;;;;;4956073;28;20066;-73
2023/01/02 04:35:10;;;;;;;11.23;5.50;;;;;;;;;;4950932;28;20059;-76
2023/01/02 04:37:39;;;;;;;11.90;5.38;;;;;;;;;;4949229;28;20053;-75
2023/01/02 04:40:10;;;;;;;9.73;4.63;;;;;;;;;;4951853;28;20532;-75
2023/01/02 04:42:36;;;;;;;10.15;4.47;;;;;;;;;;4952104;28;20050;-74
2023/01/02 04:45:02;;;;;;;7.65;4.05;;;;;;;;;;4950407;28;20066;-73
2023/01/02 04:47:28;;;;;;;9.73;4.00;;;;;;;;;;4954059;28;20055;-73
2023/01/02 04:49:54;;;;;;;12.30;4.28;;;;;;;;;;4946098;28;20047;-73
2023/01/02 04:52:20;;;;;;;10.55;4.15;;;;;;;;;;4955351;28;20069;-75
2023/01/02 04:54:45;;;;;;;8.90;3.67;;;;;;;;;;4957583;28;20074;-75
2023/01/02 04:57:12;;;;;;;8.95;3.55;;;;;;;;;;4947210;28;20073;-73
2023/01/02 04:59:37;;;;;;;9.02;3.90;;;;;;;;;;4945494;28;20536;-74
2023/01/02 05:02:03;;;;;;;11.27;3.72;;;;;;;;;;4952641;28;20053;-73
2023/01/02 05:04:29;;;;;;;11.98;3.60;;;;;;;;;;4952638;28;20043;-74
2023/01/02 05:06:55;;;;;;;8.00;3.60;;;;;;;;;;4951192;28;20413;-73
2023/01/02 05:09:21;;;;;;;8.25;3.35;;;;;;;;;;4952257;28;20078;-74
2023/01/02 05:11:47;;;;;;;6.43;3.20;;;;;;;;;;4951905;28;20449;-75
2023/01/02 05:14:13;;;;;;;11.43;3.70;;;;;;;;;;4954753;28;20062;-76
2023/01/02 05:16:39;;;;;;;10.88;4.25;;;;;;;;;;4954864;28;20117;-74
2023/01/02 05:19:05;;;;;;;10.02;4.43;;;;;;;;;;4953988;28;20044;-73
2023/01/02 05:24:16;;;;;;;12.30;3.92;;;;;;;;;;4956981;28;20071;-75
2023/01/02 05:26:42;;;;;;;7.80;3.45;;;;;;;;;;4951234;28;20508;-74
2023/01/02 05:29:07;;;;;;;10.75;3.45;;;;;;;;;;4955169;28;20046;-74
2023/01/02 05:31:33;;;;;;;6.30;3.70;;;;;;;;;;4955314;28;20051;-75
2023/01/02 05:33:59;;;;;;;6.45;3.38;;;;;;;;;;4959756;28;20078;-74
2023/01/02 05:36:26;;;;;;;6.45;3.08;;;;;;;;;;4957988;28;20050;-75
2023/01/02 05:38:52;;;;;;;8.23;3.15;;;;;;;;;;4958679;28;20074;-76
2023/01/02 05:41:20;;;;;;;9.48;3.33;;;;;;;;;;4956209;28;20042;-77
2023/01/02 05:43:45;;;;;;;9.18;3.78;;;;;;;;;;4959401;28;20057;-74
2023/01/02 05:46:14;;;;;;;7.53;3.67;;;;;;;;;;4956852;28;20058;-77
2023/01/02 05:48:41;;;;;;;8.38;3.70;;;;;;;;;;4951504;28;20082;-75
2023/01/02 05:51:10;;;;;;;7.20;3.22;;;;;;;;;;4956654;28;20364;-75
2023/01/02 05:53:36;;;;;;;6.20;3.40;;;;;;;;;;4953610;28;20509;-75
2023/01/02 05:56:11;;;;;;;7.70;3.58;;;;;;;;;;4953749;28;20169;-76
2023/01/02 05:58:38;;;;;;;;;;;;;;;;;;4958664;28;20058;-75
2023/01/02 06:01:18;;;;;;;8.05;3.50;;;;;;;;;;4950841;28;19933;-73
2023/01/02 06:03:45;;;;;;;8.02;3.70;;;;;;;;;;4958407;28;20126;-75
2023/01/02 06:06:12;;;;;;;7.57;3.50;;;;;;;;;;4960112;28;20062;-73
2023/01/02 06:08:38;;;;;;;9.45;3.85;;;;;;;;;;4953830;28;20082;-73
2023/01/02 06:11:05;;;;;;;9.80;3.70;;;;;;;;;;4957933;28;20576;-76
2023/01/02 06:13:32;;;;;;;8.73;4.00;;;;;;;;;;4954594;28;20051;-75
2023/01/02 06:16:00;;;;;;;9.40;3.90;;;;;;;;;;4957339;28;20079;-75
2023/01/02 06:18:26;;;;;;;7.10;4.20;;;;;;;;;;4960091;28;20066;-76
2023/01/02 06:21:00;;;;;;;6.35;3.75;;;;;;;;;;4955134;28;20055;-75
2023/01/02 06:23:25;;;;;;;9.00;3.90;;;;;;;;;;4958431;28;20853;-74
2023/01/02 06:25:52;;;;;;;10.50;3.85;;;;;;;;;;4947438;28;20047;-76
2023/01/02 06:28:18;;;;;;;9.80;3.83;;;;;;;;;;4962455;28;20058;-75
2023/01/02 06:30:44;;;;;;;8.98;3.72;;;;;;;;;;4950743;28;20385;-73
2023/01/02 06:33:10;;;;;;;7.75;3.65;;;;;;;;;;4955377;28;20758;-76
2023/01/02 06:35:36;;;;;;;8.10;3.65;;;;;;;;;;4956893;28;20078;-76
2023/01/02 06:38:02;;;;;;;12.23;3.53;;;;;;;;;;4955711;28;20050;-74
2023/01/02 06:40:28;;;;;;;16.38;3.65;;;;;;;;;;4952248;28;20859;-75
2023/01/02 06:42:53;;;;;;;8.50;3.45;;;;;;;;;;4952388;28;20058;-73
2023/01/02 06:45:20;;;;;;;10.95;3.83;;;;;;;;;;4950541;28;21718;-75
2023/01/02 06:47:46;;;;;;;10.25;3.53;;;;;;;;;;4950959;28;20055;-74
2023/01/02 06:50:12;;;;;;;8.95;3.53;;;;;;;;;;4951680;28;20054;-75
2023/01/02 06:52:38;;;;;;;10.77;3.67;;;;;;;;;;4957186;28;20040;-74
2023/01/02 06:55:04;;;;;;;8.20;3.50;;;;;;;;;;4948076;28;20113;-74
2023/01/02 06:57:30;;;;;;;13.23;3.53;;;;;;;;;;4951158;28;20053;-73
2023/01/02 06:59:56;;;;;;;12.05;3.50;;;;;;;;;;4950700;28;20047;-76
2023/01/02 07:02:22;;;;;;;8.70;3.45;;;;;;;;;;4956511;28;20523;-74
2023/01/02 07:04:48;;;;;;;8.20;3.58;;;;;;;;;;4960070;28;20142;-75
2023/01/02 07:07:14;;;;;;;7.72;3.47;;;;;;;;;;4956096;28;20576;-75
2023/01/02 07:09:40;;;;;;;16.38;3.42;;;;;;;;;;4955485;28;20062;-74
2023/01/02 07:12:06;;;;;;;14.95;3.28;;;;;;;;;;4955749;28;20050;-76
2023/01/02 07:14:32;;;;;;;10.68;3.63;;;;;;;;;;4948832;28;20057;-74
2023/01/02 07:16:57;;;;;;;5.47;3.33;;;;;;;;;;4945077;28;20743;-74
2023/01/02 07:19:23;;;;;;;9.30;3.63;;;;;;;;;;4951511;28;20051;-76
2023/01/02 07:21:49;;;;;;;13.23;4.00;;;;;;;;;;4951569;28;20117;-75
2023/01/02 07:24:15;;;;;;;14.20;3.80;;;;;;;;;;4947283;28;20055;-77
2023/01/02 07:26:41;;;;;;;14.38;4.75;;;;;;;;;;4951019;28;20464;-77
2023/01/02 07:29:07;;;;;;;7.50;3.67;;;;;;;;;;4944282;28;20532;-74
2023/01/02 07:31:34;;;;;;;7.65;3.33;;;;;;;;;;4944847;28;20054;-77
2023/01/02 07:34:01;;;;;;;9.52;3.67;;;;;;;;;;4950191;28;20073;-76
2023/01/02 07:36:26;;;;;;;15.13;3.97;;;;;;;;;;4937742;28;21183;-75
2023/01/02 07:38:56;;;;;;;12.27;3.83;;;;;;;;;;4950517;28;20054;-76
2023/01/02 07:41:24;;;;;;;10.85;3.88;;;;;;;;;;4950717;28;20148;-76
2023/01/02 07:43:54;;;;;;;16.38;4.93;;;;;;;;;;4942822;28;20055;-78
2023/01/02 07:46:20;;;;;;;11.45;4.13;;;;;;;;;;4945767;28;20451;-79
2023/01/02 07:48:47;;;;;;;16.98;3.50;;;;;;;;;;4952769;28;20629;-76
2023/01/02 07:51:13;;;;;;;9.38;4.07;;;;;;;;;;4950620;28;20419;-77
2023/01/02 07:53:40;;;;;;;8.98;3.78;;;;;;;;;;4951696;28;20440;-78
2023/01/02 07:56:06;;;;;;;11.20;4.28;;;;;;;;;;4959186;28;20109;-74
2023/01/02 07:58:33;;;;;;;20.75;5.80;;;;;;;;;;4946212;28;20416;-76
2023/01/02 08:01:05;;;;;;;24.80;5.22;;;;;;;;;;4951080;28;20105;-76
2023/01/02 08:03:31;;;;;;;19.50;5.68;;;;;;;;;;4948302;28;20046;-74
2023/01/02 08:06:04;;;;;;;23.80;4.47;;;;;;;;;;4950868;28;20528;-73
2023/01/02 08:08:30;;;;;;;12.55;4.35;;;;;;;;;;4952191;28;20039;-78
2023/01/02 08:10:56;;;;;;;14.25;4.20;;;;;;;;;;4953612;28;20070;-77
2023/01/02 08:13:22;;;;;;;18.65;4.38;;;;;;;;;;4944764;28;20058;-75
2023/01/02 08:15:48;;;;;;;13.23;3.85;;;;;;;;;;4942477;28;20055;-77
2023/01/02 08:18:14;;;;;;;16.65;4.10;;;;;;;;;;4938300;28;20073;-75
2023/01/02 08:20:39;;;;;;;13.43;4.70;;;;;;;;;;4947617;28;20729;-76
2023/01/02 08:23:05;;;;;;;19.67;4.30;;;;;;;;;;4944914;28;20113;-77
2023/01/02 08:25:31;;;;;;;11.85;4.15;;;;;;;;;;4935111;28;20051;-75
2023/01/02 08:27:57;;;;;;;13.05;4.15;;;;;;;;;;4950842;28;20153;-74
2023/01/02 08:30:23;;;;;;;8.10;3.83;;;;;;;;;;4951938;28;20054;-76
2023/01/02 08:32:49;;;;;;;7.90;3.90;;;;;;;;;;4952433;28;20455;-76
2023/01/02 08:35:15;;;;;;;13.70;3.80;;;;;;;;;;4955834;28;20051;-74
2023/01/02 08:37:41;;;;;;;15.30;4.18;;;;;;;;;;4955060;28;20115;-75
2023/01/02 08:40:07;;;;;;;15.73;4.90;;;;;;;;;;4949886;28;20082;-76
2023/01/02 08:42:34;;;;;;;11.90;4.07;;;;;;;;;;4949975;28;20047;-75
2023/01/02 08:45:00;;;;;;;8.95;4.05;;;;;;;;;;4951325;28;20451;-74
2023/01/02 08:47:26;;;;;;;8.85;4.47;;;;;;;;;;4952528;28;20059;-74
2023/01/02 08:49:51;;;;;;;7.78;3.70;;;;;;;;;;4952185;28;21039;-74
2023/01/02 08:52:17;;;;;;;8.18;4.07;;;;;;;;;;4950808;28;20085;-74
2023/01/02 08:54:43;;;;;;;12.73;4.63;;;;;;;;;;4952966;28;20520;-74
2023/01/02 08:57:09;;;;;;;12.07;3.92;;;;;;;;;;4950524;28;20504;-75
2023/01/02 08:59:35;;;;;;;13.50;5.15;;;;;;;;;;4953813;28;20047;-76
2023/01/02 09:02:01;;;;;;;15.15;4.88;;;;;;;;;;4950193;28;20054;-77
2023/01/02 09:04:27;;;;;;;11.82;5.43;;;;;;;;;;4956544;28;20055;-76
2023/01/02 09:06:53;;;;;;;16.77;4.25;;;;;;;;;;4956238;28;20054;-72
2023/01/02 09:09:19;;;;;;;15.35;4.03;;;;;;;;;;4955729;28;20101;-74
2023/01/02 09:11:51;;;;;;;11.48;4.13;;;;;;;;;;4952392;28;20057;-75
2023/01/02 09:14:18;;;;;;;13.82;3.92;;;;;;;;;;4955466;28;20326;-75
2023/01/02 09:16:45;;;;;;;11.30;4.18;;;;;;;;;;4959139;28;20555;-75
2023/01/02 09:19:11;;;;;;;18.00;4.20;;;;;;;;;;4958945;28;20109;-75
2023/01/02 09:21:37;;;;;;;14.77;4.53;;;;;;;;;;4949772;28;20051;-76
2023/01/02 09:24:04;;;;;;;15.77;5.45;;;;;;;;;;4957463;28;20109;-76
2023/01/02 09:26:30;;;;;;;13.48;4.40;;;;;;;;;;4953321;28;20536;-75
2023/01/02 09:28:55;;;;;;;13.93;4.38;;;;;;;;;;4958335;28;20051;-73
2023/01/02 09:31:22;;;;;;;14.13;4.00;;;;;;;;;;4965556;28;20047;-73
2023/01/02 09:33:48;;;;;;;10.00;3.95;;;;;;;;;;4958562;28;20047;-75
2023/01/02 09:36:17;;;;;;;17.45;4.95;;;;;;;;;;4952661;28;20051;-75
2023/01/02 09:38:42;;;;;;;13.70;4.45;;;;;;;;;;4957864;28;20385;-73
2023/01/02 09:41:52;;;;;;;14.02;4.93;;;;;;;;;;4955333;28;20058;-71
2023/01/02 09:44:32;;;;;;;9.48;4.53;;;;;;;;;;4955322;28;20065;-76
2023/01/02 09:47:10;;;;;;;15.50;4.53;;;;;;;;;;4952100;28;20508;-73
2023/01/02 09:49:46;;;;;;;16.40;4.75;;;;;;;;;;4957681;28;20482;-75
2023/01/02 09:52:26;;;;;;;17.17;4.70;;;;;;;;;;4954451;28;20043;-75
2023/01/02 09:54:52;;;;;;;16.05;4.63;;;;;;;;;;4958547;28;20093;-77
2023/01/02 09:57:23;;;;;;;14.88;4.90;;;;;;;;;;4957872;28;20058;-75
2023/01/02 09:59:55;;;;;;;10.57;4.65;;;;;;;;;;4958521;28;20063;-76
2023/01/02 10:02:58;;;;;;;28.08;5.40;;;;;;;;;;4959612;28;20043;-77
2023/01/02 10:05:27;;;;;;;16.65;4.55;;;;;;;;;;4957821;28;20078;-76
2023/01/02 10:08:12;;;;;;;13.35;4.63;;;;;;;;;;4959353;28;20818;-75
2023/01/02 10:10:43;;;;;;;10.95;4.30;;;;;;;;;;4960374;28;20077;-76
2023/01/02 10:13:24;;;;;;;8.55;4.82;;;;;;;;;;4959316;28;20229;-77
2023/01/02 10:15:52;;;;;;;16.38;4.60;;;;;;;;;;4953585;28;20055;-73
2023/01/02 10:18:42;;;;;;;10.68;3.80;;;;;;;;;;4954982;28;20059;-73
2023/01/02 10:21:16;;;;;;;11.70;3.60;;;;;;;;;;4954018;28;20081;-71
2023/01/02 10:23:48;;;;;;;13.63;4.18;;;;;;;;;;4951832;28;20047;-75
2023/01/02 10:26:17;;;;;;;13.25;3.97;;;;;;;;;;4952524;28;20090;-77
2023/01/02 10:28:46;;;;;;;13.13;3.95;;;;;;;;;;4955031;28;20508;-72
2023/01/02 10:31:32;;;;;;;8.18;3.40;;;;;;;;;;4960519;28;20055;-71
2023/01/02 10:34:01;;;;;;;14.57;4.20;;;;;;;;;;4955160;28;20161;-77
2023/01/02 10:36:30;;;;;;;14.65;5.38;;;;;;;;;;4958388;28;20051;-77
2023/01/02 10:39:02;;;;;;;17.33;6.28;;;;;;;;;;4960351;28;20105;-75
2023/01/02 10:41:30;;;;;;;15.27;5.40;;;;;;;;;;4960743;28;20265;-73
2023/01/02 10:44:03;;;;;;;16.20;6.22;;;;;;;;;;4960683;28;20777;-77
2023/01/02 10:46:36;;;;;;;18.35;5.88;;;;;;;;;;4956952;28;20061;-77
2023/01/02 10:49:05;;;;;;;16.83;5.65;;;;;;;;;;4951299;28;20059;-83
2023/01/02 10:51:31;;;;;;;24.33;6.38;;;;;;;;;;4955345;28;20694;-81
2023/01/02 10:54:07;;;;;;;16.75;6.03;;;;;;;;;;4957446;28;20051;-82
2023/01/02 10:56:37;;;;;;;20.77;8.27;;;;;;;;;;4959837;28;20058;-77
2023/01/02 10:59:18;;;;;;;18.60;8.57;;;;;;;;;;4954969;28;20109;-74
2023/01/02 11:01:53;;;;;;;23.25;8.50;;;;;;;;;;4961066;28;20061;-82
2023/01/02 11:04:22;;;;;;;18.27;8.25;;;;;;;;;;4960007;28;20559;-82
2023/01/02 11:06:59;;;;;;;16.25;8.13;;;;;;;;;;4952670;28;20134;-76
2023/01/02 11:09:27;;;;;;;22.92;8.93;;;;;;;;;;4947626;28;20057;-76
2023/01/02 11:12:12;;;;;;;20.00;8.10;;;;;;;;;;4956792;28;20428;-75
2023/01/02 11:14:39;;;;;;;18.92;7.97;;;;;;;;;;4951643;28;20129;-75
2023/01/02 11:17:10;;;;;;;20.45;8.60;;;;;;;;;;4958754;28;20126;-73
2023/01/02 11:19:42;;;;;;;20.42;8.95;;;;;;;;;;4939529;28;20063;-73
2023/01/02 11:22:10;;;;;;;22.38;9.70;;;;;;;;;;4952794;28;20056;-71
2023/01/02 11:24:59;;;;;;;21.88;9.65;;;;;;;;;;4953681;28;20062;-73
2023/01/02 11:27:35;;;;;;;25.65;9.75;;;;;;;;;;4952472;28;20050;-80
2023/01/02 11:30:08;;;;;;;19.92;9.70;;;;;;;;;;4957893;28;20054;-73
2023/01/02 11:32:40;;;;;;;21.85;10.00;;;;;;;;;;4959076;28;20050;-70
2023/01/02 11:35:35;;;;;;;18.83;9.73;;;;;;;;;;4953947;28;20089;-72
2023/01/02 11:38:02;;;;;;;19.60;9.45;;;;;;;;;;4952512;28;20047;-74
2023/01/02 11:40:30;;;;;;;20.15;9.43;;;;;;;;;;4949108;28;20073;-69
2023/01/02 11:45:47;;;;;;;17.20;8.27;;;;;;;;;;4952067;28;20063;-70
2023/01/02 11:48:22;;;;;;;20.38;8.02;;;;;;;;;;4954036;28;20488;-69
2023/01/02 11:50:51;;;;;;;18.88;8.35;;;;;;;;;;4952251;28;20335;-72
2023/01/02 11:53:20;;;;;;;21.60;10.43;;;;;;;;;;4949463;28;20044;-70
2023/01/02 11:56:01;;;;;;;23.20;9.95;;;;;;;;;;4949852;28;20488;-70
2023/01/02 11:58:29;;;;;;;21.88;9.10;;;;;;;;;;4959531;28;20058;-70
2023/01/02 12:01:08;;;;;;;21.83;9.32;;;;;;;;;;4954178;28;20062;-71
2023/01/02 12:03:34;;;;;;;22.63;10.27;;;;;;;;;;4954267;28;20074;-70
2023/01/02 12:06:19;;;;;;;20.25;9.68;;;;;;;;;;4951931;28;20066;-71
2023/01/02 12:09:02;;;;;;;22.23;10.93;;;;;;;;;;4955187;28;20047;-69
2023/01/02 12:11:43;;;;;;;21.45;9.55;;;;;;;;;;4949161;28;20066;-69
2023/01/02 12:14:17;;;;;;;27.85;9.43;;;;;;;;;;4954788;28;20055;-70
2023/01/02 12:17:11;;;;;;;38.10;10.38;;;;;;;;;;4948616;28;20059;-72
2023/01/02 12:19:51;;;;;;;23.73;9.57;;;;;;;;;;4933185;28;20535;-70
2023/01/02 12:22:42;;;;;;;17.70;8.77;;;;;;;;;;4953749;28;20802;-71
2023/01/02 12:25:25;;;;;;;19.98;10.05;;;;;;;;;;4950229;28;20629;-67
2023/01/02 12:28:01;;;;;;;20.70;9.65;;;;;;;;;;4956345;28;20070;-71
2023/01/02 12:30:31;;;;;;;31.95;10.60;;;;;;;;;;4953439;28;20654;-69
2023/01/02 12:33:28;;;;;;;23.40;9.15;;;;;;;;;;4953504;28;20051;-70
2023/01/02 12:36:16;;;;;;;31.98;9.70;;;;;;;;;;4948450;28;20485;-69
2023/01/02 12:38:59;;;;;;;20.80;10.68;;;;;;;;;;4948753;28;20773;-70
2023/01/02 12:41:43;;;;;;;22.23;10.57;;;;;;;;;;4950367;28;20070;-71
2023/01/02 12:44:21;;;;;;;22.02;9.35;;;;;;;;;;4951762;28;20130;-80
2023/01/02 12:46:46;;;;;;;21.40;8.90;;;;;;;;;;4945500;28;20414;-70
2023/01/02 12:49:45;;;;;;;18.88;7.90;;;;;;;;;;4951256;28;20059;-76
2023/01/02 12:52:39;;;;;;;23.40;7.95;;;;;;;;;;4948047;28;20199;-73
2023/01/02 12:55:17;;;;;;;18.27;7.88;;;;;;;;;;4948428;28;20066;-73
2023/01/02 12:57:58;;;;;;;23.88;6.93;;;;;;;;;;4947976;28;20136;-72
2023/01/02 13:01:05;;;;;;;13.15;6.25;;;;;;;;;;4948390;28;20062;-73
2023/01/02 13:03:58;;;;;;;16.02;5.82;;;;;;;;;;4955512;28;20054;-71
2023/01/02 13:06:32;;;;;;;19.20;5.50;;;;;;;;;;4952669;28;20054;-74
2023/01/02 13:09:09;;;;;;;12.60;5.43;;;;;;;;;;4951421;28;20058;-75
2023/01/02 13:11:41;;;;;;;15.95;5.80;;;;;;;;;;4973310;28;20409;-75
2023/01/02 13:14:13;;;;;;;16.75;5.00;;;;;;;;;;4953244;28;20051;-73
2023/01/02 13:16:42;;;;;;;12.43;4.20;;;;;;;;;;4961387;28;20051;-73
2023/01/02 13:19:31;;;;;;;8.23;3.95;;;;;;;;;;4954460;28;20055;-73
2023/01/02 13:22:09;;;;;;;15.68;5.18;;;;;;;;;;4943234;28;20070;-73
2023/01/02 13:24:35;;;;;;;15.15;4.57;;;;;;;;;;4959223;28;20090;-73
2023/01/02 13:27:02;;;;;;;19.42;5.13;;;;;;;;;;4957947;28;20051;-74
2023/01/02 13:29:39;;;;;;;13.90;5.72;;;;;;;;;;4954306;28;20066;-72
2023/01/02 13:32:08;;;;;;;15.07;4.88;;;;;;;;;;4947584;28;20047;-71
2023/01/02 13:34:39;;;;;;;12.10;5.65;;;;;;;;;;4947117;28;20064;-72
2023/01/02 13:37:08;;;;;;;11.77;4.38;;;;;;;;;;4943980;28;20464;-75
2023/01/02 13:39:59;;;;;;;11.63;5.00;;;;;;;;;;4946930;28;20947;-72
2023/01/02 13:45:24;;;;;;;11.98;5.25;;;;;;;;;;4953892;28;20186;-77
2023/01/02 13:47:55;;;;;;;12.77;5.90;;;;;;;;;;4958167;28;20059;-74
2023/01/02 13:50:26;;;;;;;14.35;5.82;;;;;;;;;;4954313;28;20065;-75
2023/01/02 13:53:03;;;;;;;11.15;5.50;;;;;;;;;;4951512;28;20055;-74
2023/01/02 13:55:32;;;;;;;17.77;6.40;;;;;;;;;;4952011;28;20150;-74
2023/01/02 13:58:16;;;;;;;11.63;5.57;;;;;;;;;;4955034;28;20047;-75
2023/01/02 14:00:47;;;;;;;14.17;5.93;;;;;;;;;;4952730;28;20959;-71
2023/01/02 14:03:19;;;;;;;15.07;6.38;;;;;;;;;;4943858;28;20055;-75
2023/01/02 14:05:59;;;;;;;17.10;6.65;;;;;;;;;;4951178;28;20042;-77
2023/01/02 14:08:30;;;;;;;26.13;7.07;;;;;;;;;;4950426;28;20043;-77
2023/01/02 14:11:01;;;;;;;15.30;7.03;;;;;;;;;;4952072;28;20109;-74
2023/01/02 14:13:35;;;;;;;15.73;6.40;;;;;;;;;;4952727;28;20139;-74
2023/01/02 14:16:10;;;;;;;15.00;6.07;;;;;;;;;;4950904;28;20133;-76
2023/01/02 14:18:37;;;;;;;20.17;6.78;;;;;;;;;;4958122;28;20105;-79
2023/01/02 14:21:03;;;;;;;15.15;6.70;;;;;;;;;;4953069;28;20372;-79
2023/01/02 14:23:38;;;;;;;15.35;6.55;;;;;;;;;;4954616;28;20047;-74
2023/01/02 14:26:04;;;;;;;15.27;6.85;;;;;;;;;;4953979;28;20378;-74
2023/01/02 14:28:37;;;;;;;14.02;5.75;;;;;;;;;;4952036;28;20047;-76
2023/01/02 14:31:16;;;;;;;13.88;6.68;;;;;;;;;;4953234;28;20054;-75
2023/01/02 14:33:50;;;;;;;18.05;6.95;;;;;;;;;;4960230;28;20131;-75
2023/01/02 14:36:16;;;;;;;18.63;6.88;;;;;;;;;;4961799;28;20139;-78
2023/01/02 14:38:53;;;;;;;17.98;6.80;;;;;;;;;;4957364;28;20500;-75
2023/01/02 14:44:45;;;;;;;15.73;6.95;;;;;;;;;;4955296;28;20653;-80
2023/01/02 14:47:24;;;;;;;18.15;7.32;;;;;;;;;;4957674;28;20089;-74
2023/01/02 14:49:55;;;;;;;16.63;7.80;;;;;;;;;;4958412;28;20062;-73
2023/01/02 14:52:29;;;;;;;17.52;8.07;;;;;;;;;;4958993;28;20046;-75
2023/01/02 14:55:12;;;;;;;15.75;6.75;;;;;;;;;;4954085;28;20074;-79
2023/01/02 14:57:40;;;;;;;18.77;7.95;;;;;;;;;;4955111;28;20070;-77
2023/01/02 15:00:16;;;;;;;16.17;7.18;;;;;;;;;;4954934;28;20081;-78
2023/01/02 15:02:46;;;;;;;13.55;6.53;;;;;;;;;;4957694;28;20054;-77
2023/01/02 15:05:47;;;;;;;18.90;7.13;;;;;;;;;;4956441;28;20134;-74
2023/01/02 15:08:17;;;;;;;18.80;8.00;;;;;;;;;;4957320;28;20050;-79